Murzzuschlag, Austria
Current Conditions -  °F | °C
As of 11:20 PM on Sunday 23 Nov 2014 (Local Time) from LOWG Reporting Station
Haze Haze  
Wind Chill: 39°   Ceiling: 900
Heat Index: 39°   Visibility: 2.5mi
Dew Point: 39°   Wind: 2mph
Humidity: 100%   Direction: NA
Pressure: 30.36"   Gusts: NA
Location:  47.61°N, 15.67°E
Report Text: LOWG 232120Z VRB02KT 4000 BR FEW003 OVC009 04/04 Q1028 NOSIG
Loading
Personal Weather Stations






























Interactive Weather Map New forecast layout! Learn more

10-Day Weather Forecast

Advertisements
Track Severe Weather on mobile